Aérodrome :
LOGIN :

S'inscrire | Disclaimer

   EN    FR    IT 

 










Légende :    VFR   VFR Marginal   IFR   IFR Intensif   IFR Très Intensif
Visi : 
Plafond : 
>= 8 km
>= 3000ft
5 à 8 km
1000 à 3000 ft
1500m à 5 km
500 à 1000 ft
800 à 1500m
200 à 500 ft
< 800m
< 200 ft
Symboles :   Orages  Brouillard  Fortes neiges  Fortes précipitations  Vent > 20 kt
SIGMETs :   Divers  Orages  Givrage  Turbulence  Onde Orograph.  Cendres Volcan.







- Altitude de l'aérodrome : 453 ft
- Code IATA : SBK
- Voir les cartes d'approche


LFRT - St Brieuc Armor

DERNIER METAR :
  • 181930Z AUTO 21007KT 180V240 9999 FEW028 08/07 Q1006

METARs EXPIRÉS :
  • 181900Z AUTO 24007KT 9999 FEW028 08/07 Q1006
  • 181830Z AUTO 24007KT 210V270 9999 BKN043 OVC200 08/07 Q1005
  • 181800Z AUTO 26009KT 9999 FEW022 SCT068 BKN110 09/07 Q1005
  • 181730Z AUTO 27010KT 9999 -RA FEW013/// SCT018/// BKN030/// ///CB 09/08 Q1004
  • 181700Z AUTO 27012KT 9999 -RA SCT009/// SCT023/// BKN054/// ///TCU 09/08 Q1004

Prévision TAF périmée.
Pas de NOTAMs connus pour ce terrain.



MET'MAP, la Météo Aéronautique d'un coup d'oeil ! - Copyright ORBIFLY Décembre 2007 - Disclaimer

ORBIFLY MET'MAP TEAM :

Programmation & Développement : Alexandra Zaïnal
Conception & Développement : Baudouin d'Aumeries
Co-Programmation & Développement : Marc-Olivier Méhu
Soutien technique & logistique : Manuel Goepfert

Contact : metmap@orbifly.com




SOURCES & CREDITS :

   NOAA